Time;durP1;ratioP1;P1;durP2;ratioP2;P2;SDS_P1;SDS_P2;PMS_P1;PMS_P2;Temp;Humidity;BMP_temperature;BMP_pressure;BME280_temperature;BME280_humidity;BME280_pressure;Samples;Min_cycle;Max_cycle;Signal;HPM_P1;HPM_P2
2022/01/15 00:00:35;;;;;;;38.63;14.90;;;-2.10;99.90;;;;;;5005174;28;20973;-58
2022/01/15 00:03:05;;;;;;;54.93;17.00;;;-2.10;99.90;;;;;;5004786;28;20412;-58
2022/01/15 00:05:32;;;;;;;65.33;16.10;;;-2.10;99.90;;;;;;5008613;28;20791;-58
2022/01/15 00:07:59;;;;;;;44.87;14.77;;;-2.10;99.90;;;;;;5012423;28;20414;-57
2022/01/15 00:10:29;;;;;;;46.70;14.37;;;-2.10;99.90;;;;;;5010843;28;20519;-58
2022/01/15 00:12:59;;;;;;;34.00;13.60;;;-2.10;99.90;;;;;;5012239;28;21054;-58
2022/01/15 00:15:35;;;;;;;51.70;15.83;;;-2.10;99.90;;;;;;5009992;28;20479;-58
2022/01/15 00:18:06;;;;;;;32.90;15.20;;;-2.10;99.90;;;;;;5011366;28;20428;-58
2022/01/15 00:20:32;;;;;;;85.50;16.50;;;-2.10;99.90;;;;;;5009849;28;20427;-57
2022/01/15 00:22:59;;;;;;;73.57;17.17;;;-2.10;99.90;;;;;;5012414;28;20444;-57
2022/01/15 00:25:27;;;;;;;46.93;14.13;;;-2.10;99.90;;;;;;5010983;28;20436;-58
2022/01/15 00:27:54;;;;;;;36.50;12.83;;;-2.10;99.90;;;;;;5009841;28;20436;-58
2022/01/15 00:30:20;;;;;;;74.10;13.80;;;-2.10;99.90;;;;;;5010700;28;20452;-58
2022/01/15 00:32:47;;;;;;;108.37;14.73;;;-2.20;99.90;;;;;;5010288;28;20508;-57
2022/01/15 00:35:15;;;;;;;83.70;17.03;;;-2.20;99.90;;;;;;5008669;28;20444;-57
2022/01/15 00:37:42;;;;;;;76.47;14.23;;;-2.30;99.90;;;;;;5011609;28;20461;-58
2022/01/15 00:42:38;;;;;;;47.80;13.83;;;-2.40;99.90;;;;;;5013254;23;20936;-53
2022/01/15 00:45:08;;;;;;;58.60;14.87;;;-2.40;99.90;;;;;;4988545;28;20494;-53
2022/01/15 00:47:34;;;;;;;47.53;13.83;;;-2.40;99.90;;;;;;4987998;28;20429;-57
2022/01/15 00:50:02;;;;;;;35.80;13.10;;;-2.40;99.90;;;;;;4989824;28;20465;-55
2022/01/15 00:52:28;;;;;;;49.23;12.43;;;-2.40;99.90;;;;;;4988128;28;20472;-56
2022/01/15 00:54:54;;;;;;;84.17;17.23;;;-2.40;99.90;;;;;;4989886;28;20420;-56
2022/01/15 00:57:21;;;;;;;41.27;13.30;;;-2.40;99.90;;;;;;4989102;28;20703;-56
2022/01/15 00:59:46;;;;;;;93.03;17.10;;;-2.50;99.90;;;;;;4990280;28;20427;-52
2022/01/15 01:02:13;;;;;;;88.73;16.50;;;-2.50;99.90;;;;;;4988573;28;21004;-57
2022/01/15 01:04:38;;;;;;;53.93;14.97;;;-2.50;99.90;;;;;;4989793;28;20273;-58
2022/01/15 01:07:04;;;;;;;197.53;21.63;;;-2.50;99.90;;;;;;4989758;28;20804;-50
2022/01/15 01:09:48;;;;;;;69.53;15.33;;;-2.50;99.90;;;;;;4987985;28;20246;-55
2022/01/15 01:13:14;;;;;;;41.93;14.10;;;-2.50;99.90;;;;;;4990357;28;20778;-54
2022/01/15 01:23:13;;;;;;;38.60;12.80;;;-2.60;99.90;;;;;;4988526;28;20488;-56
2022/01/15 01:25:43;;;;;;;24.67;13.07;;;-2.60;99.90;;;;;;4989058;28;20433;-54
2022/01/15 01:28:14;;;;;;;28.10;13.37;;;-2.60;99.90;;;;;;4989828;28;20182;-54
2022/01/15 01:30:48;;;;;;;22.30;12.03;;;-2.60;99.90;;;;;;4987389;28;20463;-54
2022/01/15 01:36:02;;;;;;;15.27;7.93;;;-2.60;99.90;;;;;;4987880;28;20543;-54
2022/01/15 01:38:33;;;;;;;15.47;8.13;;;-2.70;99.90;;;;;;4986964;28;20516;-55
2022/01/15 01:41:00;;;;;;;20.80;10.10;;;-2.70;99.90;;;;;;4988516;28;20497;-55
2022/01/15 01:48:42;;;;;;;20.70;11.00;;;-2.90;99.90;;;;;;4988083;28;20449;-55
2022/01/15 01:51:08;;;;;;;24.60;11.53;;;-2.90;99.90;;;;;;4987639;28;20443;-56
2022/01/15 01:53:35;;;;;;;32.93;10.30;;;-3.00;99.90;;;;;;4987778;28;20442;-56
2022/01/15 01:56:02;;;;;;;45.90;10.70;;;-3.00;99.90;;;;;;4987484;28;20433;-57
2022/01/15 01:58:27;;;;;;;24.80;11.20;;;-3.00;99.90;;;;;;4986978;28;20500;-56
2022/01/15 02:00:53;;;;;;;35.67;9.80;;;-3.00;99.90;;;;;;4987774;28;21008;-56
2022/01/15 02:03:19;;;;;;;25.90;9.77;;;-3.00;99.90;;;;;;4988249;28;20685;-53
2022/01/15 02:05:44;;;;;;;19.17;9.63;;;-3.10;99.90;;;;;;4984998;28;20232;-53
2022/01/15 02:08:13;;;;;;;27.40;10.50;;;-3.10;99.90;;;;;;4985919;28;20221;-52
2022/01/15 02:10:38;;;;;;;21.70;11.43;;;-3.10;99.90;;;;;;4988733;28;20226;-55
2022/01/15 02:13:08;;;;;;;20.50;10.00;;;-3.10;99.90;;;;;;4989745;28;20460;-52
2022/01/15 02:15:36;;;;;;;26.30;10.27;;;-3.10;99.90;;;;;;4987454;28;20182;-57
2022/01/15 02:18:02;;;;;;;17.63;9.40;;;-3.10;99.90;;;;;;4990283;28;20493;-56
2022/01/15 02:25:49;;;;;;;19.10;9.40;;;-3.20;99.90;;;;;;4987277;28;20452;-54
2022/01/15 02:28:18;;;;;;;27.20;10.00;;;-3.20;99.90;;;;;;4987435;28;20863;-55
2022/01/15 02:30:44;;;;;;;18.80;9.57;;;-3.20;99.90;;;;;;4986153;28;20442;-58
2022/01/15 02:33:10;;;;;;;23.10;10.00;;;-3.20;99.90;;;;;;4987334;28;20431;-54
2022/01/15 02:35:36;;;;;;;16.97;9.97;;;-3.30;99.90;;;;;;4987909;28;20926;-55
2022/01/15 02:38:03;;;;;;;32.97;9.90;;;-3.30;99.90;;;;;;4988100;28;20249;-54
2022/01/15 02:40:33;;;;;;;15.80;9.00;;;-3.30;99.90;;;;;;4988658;28;20195;-54
2022/01/15 02:43:11;;;;;;;20.90;7.90;;;-3.30;99.90;;;;;;4985372;28;20504;-57
2022/01/15 02:45:41;;;;;;;21.40;8.47;;;-3.30;99.90;;;;;;4984810;28;20418;-58
2022/01/15 02:48:17;;;;;;;15.67;8.17;;;-3.30;99.90;;;;;;4987592;28;20417;-53
2022/01/15 02:50:44;;;;;;;14.83;7.63;;;-3.40;99.90;;;;;;4995308;28;20448;-59
2022/01/15 02:53:12;;;;;;;15.73;8.70;;;-3.40;99.90;;;;;;5010415;28;20421;-59
2022/01/15 02:55:42;;;;;;;17.23;9.43;;;-3.50;99.90;;;;;;5009656;28;20477;-58
2022/01/15 02:58:08;;;;;;;12.83;8.27;;;-3.50;99.90;;;;;;4992135;28;20449;-53
2022/01/15 03:00:35;;;;;;;21.17;8.10;;;-3.50;99.90;;;;;;4986124;28;20453;-57
2022/01/15 03:03:00;;;;;;;15.70;9.20;;;-3.50;99.90;;;;;;4983988;28;20923;-56
2022/01/15 03:05:26;;;;;;;19.60;9.60;;;-3.50;99.90;;;;;;4982371;28;20443;-55
2022/01/15 03:07:52;;;;;;;21.53;10.20;;;-3.50;99.90;;;;;;4983722;28;21504;-55
2022/01/15 03:10:18;;;;;;;16.33;8.70;;;-3.50;99.90;;;;;;4984801;28;20206;-54
2022/01/15 03:12:44;;;;;;;12.53;8.33;;;-3.50;99.90;;;;;;4982066;28;20183;-55
2022/01/15 03:15:10;;;;;;;21.37;10.57;;;-3.40;99.90;;;;;;4984465;28;20996;-57
2022/01/15 03:17:36;;;;;;;17.93;9.30;;;-3.40;99.90;;;;;;4986466;28;20421;-56
2022/01/15 03:20:04;;;;;;;19.20;10.10;;;-3.40;99.90;;;;;;5005787;28;20417;-59
2022/01/15 03:22:30;;;;;;;18.93;10.07;;;-3.50;99.90;;;;;;5004202;28;20194;-53
2022/01/15 03:24:55;;;;;;;19.83;9.40;;;-3.50;99.90;;;;;;4984734;28;20526;-56
2022/01/15 03:27:23;;;;;;;13.77;8.37;;;-3.50;99.90;;;;;;4986274;28;20326;-56
2022/01/15 03:29:51;;;;;;;14.47;7.73;;;-3.50;99.90;;;;;;4986192;28;20202;-55
2022/01/15 03:32:17;;;;;;;15.57;8.10;;;-3.50;99.90;;;;;;4978132;28;20451;-56
2022/01/15 03:34:43;;;;;;;13.80;8.70;;;-3.50;99.90;;;;;;4979393;28;20429;-54
2022/01/15 03:37:09;;;;;;;13.97;8.40;;;-3.50;99.90;;;;;;4983817;28;20988;-56
2022/01/15 03:39:35;;;;;;;10.27;7.20;;;-3.50;99.90;;;;;;4983738;28;20201;-54
2022/01/15 03:42:02;;;;;;;11.30;6.83;;;-3.60;99.90;;;;;;4982565;28;20567;-56
2022/01/15 03:44:27;;;;;;;12.20;7.20;;;-3.60;99.90;;;;;;4983049;28;20442;-54
2022/01/15 03:46:53;;;;;;;12.13;6.50;;;-3.60;99.90;;;;;;4986320;28;20768;-54
2022/01/15 03:49:19;;;;;;;10.87;7.27;;;-3.70;99.90;;;;;;4984959;28;20285;-56
2022/01/15 03:51:44;;;;;;;9.23;6.70;;;-3.70;99.90;;;;;;4978752;28;20196;-53
2022/01/15 03:54:10;;;;;;;11.93;7.50;;;-3.70;99.90;;;;;;4982919;28;20187;-56
2022/01/15 03:56:36;;;;;;;10.40;6.60;;;-3.70;99.90;;;;;;4992512;28;20178;-55
2022/01/15 03:59:02;;;;;;;10.80;7.40;;;-3.70;99.90;;;;;;4991991;28;20229;-55
2022/01/15 04:01:27;;;;;;;16.83;8.03;;;-3.70;99.90;;;;;;4993760;28;20624;-55
2022/01/15 04:03:53;;;;;;;25.03;9.13;;;-3.70;99.90;;;;;;4997481;28;20448;-52
2022/01/15 04:06:18;;;;;;;12.57;7.90;;;-3.80;99.90;;;;;;4989149;28;20183;-59
2022/01/15 04:08:47;;;;;;;12.20;7.63;;;-3.70;99.90;;;;;;4992758;28;20194;-55
2022/01/15 04:11:13;;;;;;;13.07;8.23;;;-3.70;99.90;;;;;;4986879;28;20261;-55
2022/01/15 04:13:38;;;;;;;14.70;8.40;;;-3.70;99.90;;;;;;4986761;28;20437;-56
2022/01/15 04:16:04;;;;;;;12.40;7.73;;;-3.70;99.90;;;;;;4987010;28;20201;-56
2022/01/15 04:18:36;;;;;;;13.80;8.60;;;-3.70;99.90;;;;;;4986822;28;20188;-53
2022/01/15 04:21:02;;;;;;;13.60;7.77;;;-3.70;99.90;;;;;;4988319;28;20874;-55
2022/01/15 04:23:27;;;;;;;12.73;7.30;;;-3.70;99.90;;;;;;4990310;28;20435;-55
2022/01/15 04:25:53;;;;;;;15.83;8.70;;;-3.70;99.90;;;;;;4988062;28;20454;-56
2022/01/15 04:28:19;;;;;;;16.27;8.73;;;-3.80;99.90;;;;;;4980388;28;20189;-56
2022/01/15 04:30:47;;;;;;;12.17;7.10;;;-3.80;99.90;;;;;;4987075;28;20775;-53
2022/01/15 04:33:13;;;;;;;11.20;7.33;;;-3.80;99.90;;;;;;4990670;28;20302;-58
2022/01/15 04:35:40;;;;;;;14.17;7.80;;;-3.80;99.90;;;;;;5010147;28;20496;-57
2022/01/15 04:38:10;;;;;;;14.10;7.93;;;-3.80;99.90;;;;;;4996440;28;20452;-58
2022/01/15 04:40:36;;;;;;;11.63;7.27;;;-3.80;99.90;;;;;;5010395;28;20543;-57
2022/01/15 04:43:01;;;;;;;12.47;7.60;;;-3.80;99.90;;;;;;5009366;28;20418;-61
2022/01/15 04:45:27;;;;;;;12.87;7.30;;;-3.80;99.90;;;;;;5012182;28;20235;-58
2022/01/15 04:47:53;;;;;;;10.87;6.90;;;-3.80;99.90;;;;;;5011857;28;20160;-57
2022/01/15 04:50:20;;;;;;;10.23;6.50;;;-3.80;99.90;;;;;;5007855;28;20252;-60
2022/01/15 04:52:46;;;;;;;12.20;6.53;;;-3.80;99.90;;;;;;5004636;28;20184;-58
2022/01/15 04:55:12;;;;;;;9.83;5.70;;;-3.80;99.90;;;;;;5003491;28;20439;-55
2022/01/15 04:57:39;;;;;;;10.47;6.30;;;-3.90;99.90;;;;;;5006871;28;20770;-58
2022/01/15 05:00:08;;;;;;;12.93;7.40;;;-3.90;99.90;;;;;;5006378;28;20490;-55
2022/01/15 05:02:33;;;;;;;13.73;7.43;;;-3.90;99.90;;;;;;4994788;28;20516;-58
2022/01/15 05:04:59;;;;;;;11.43;6.60;;;-3.90;99.90;;;;;;5024299;28;20429;-62
2022/01/15 05:07:25;;;;;;;13.77;7.10;;;-3.90;99.90;;;;;;5013116;28;20195;-58
2022/01/15 05:09:50;;;;;;;14.50;7.63;;;-3.90;99.90;;;;;;5008149;28;20188;-59
2022/01/15 05:12:39;;;;;;;12.10;6.67;;;-3.90;99.90;;;;;;4993067;28;20268;-54
2022/01/15 05:15:05;;;;;;;8.90;6.40;;;-3.90;99.90;;;;;;4991383;28;20202;-57
2022/01/15 05:17:31;;;;;;;14.37;6.93;;;-3.90;99.90;;;;;;4988763;28;20961;-57
2022/01/15 05:19:56;;;;;;;11.87;6.90;;;-4.00;99.90;;;;;;4987047;28;20426;-55
2022/01/15 05:22:22;;;;;;;14.83;7.30;;;-4.00;99.90;;;;;;4979594;28;20207;-54
2022/01/15 05:24:48;;;;;;;11.00;6.23;;;-4.00;99.90;;;;;;4990038;28;20173;-53
2022/01/15 05:27:14;;;;;;;19.17;7.70;;;-4.10;99.90;;;;;;4992453;28;20721;-55
2022/01/15 05:29:39;;;;;;;10.60;6.70;;;-4.10;99.90;;;;;;4980759;28;20202;-54
2022/01/15 05:32:06;;;;;;;15.60;7.50;;;-4.10;99.90;;;;;;4990867;28;20202;-55
2022/01/15 05:34:31;;;;;;;10.70;6.60;;;-4.10;99.90;;;;;;4987462;28;20430;-53
2022/01/15 05:36:57;;;;;;;13.87;7.40;;;-4.10;99.90;;;;;;4971174;28;20502;-55
2022/01/15 05:39:23;;;;;;;17.77;8.73;;;-4.10;99.90;;;;;;4990106;28;20651;-56
2022/01/15 05:41:48;;;;;;;18.00;7.93;;;-4.10;99.90;;;;;;4990959;28;20214;-54
2022/01/15 05:44:14;;;;;;;17.57;8.77;;;-4.10;99.90;;;;;;4990100;28;20653;-56
2022/01/15 05:46:39;;;;;;;18.17;8.10;;;-4.10;99.90;;;;;;4983746;28;20589;-55
2022/01/15 05:49:05;;;;;;;17.50;8.97;;;-4.20;99.90;;;;;;4974866;28;20206;-55
2022/01/15 05:51:31;;;;;;;19.43;8.40;;;-4.20;99.90;;;;;;4988730;28;20674;-54
2022/01/15 05:53:59;;;;;;;15.63;8.00;;;-4.20;99.90;;;;;;4988163;28;20549;-55
2022/01/15 05:56:24;;;;;;;16.23;8.77;;;-4.20;99.90;;;;;;4985795;28;20437;-55
2022/01/15 05:58:50;;;;;;;18.07;8.37;;;-4.20;99.90;;;;;;4988871;28;20437;-55
2022/01/15 06:01:17;;;;;;;16.03;8.20;;;-4.20;99.90;;;;;;4988146;28;20206;-54
2022/01/15 06:03:42;;;;;;;21.10;8.73;;;-4.20;99.90;;;;;;4987650;28;20599;-53
2022/01/15 06:06:08;;;;;;;15.10;8.40;;;-4.20;99.90;;;;;;4984656;28;20444;-54
2022/01/15 06:08:33;;;;;;;15.53;7.80;;;-4.10;99.90;;;;;;4985569;28;20235;-56
2022/01/15 06:10:59;;;;;;;15.20;7.30;;;-4.20;99.90;;;;;;4989051;28;20219;-55
2022/01/15 06:13:25;;;;;;;18.40;8.90;;;-4.20;99.90;;;;;;4990870;28;20199;-54
2022/01/15 06:15:50;;;;;;;16.77;9.00;;;-4.20;99.90;;;;;;4987702;28;20173;-53
2022/01/15 06:18:16;;;;;;;14.80;8.27;;;-4.20;99.90;;;;;;4990470;28;20183;-52
2022/01/15 06:20:42;;;;;;;14.50;8.50;;;-4.30;99.90;;;;;;4989895;28;20683;-53
2022/01/15 06:23:07;;;;;;;14.50;8.00;;;-4.30;99.90;;;;;;4982692;28;20255;-54
2022/01/15 06:25:33;;;;;;;16.80;9.20;;;-4.30;99.90;;;;;;4987854;28;20170;-52
2022/01/15 06:27:58;;;;;;;15.50;7.70;;;-4.30;99.90;;;;;;4980263;28;20183;-55
2022/01/15 06:30:24;;;;;;;16.93;7.80;;;-4.30;99.90;;;;;;4988024;28;20206;-54
2022/01/15 06:32:50;;;;;;;12.20;7.90;;;-4.30;99.90;;;;;;4970332;28;20833;-56
2022/01/15 06:35:18;;;;;;;16.47;9.03;;;-4.30;99.90;;;;;;4988290;28;20172;-56
2022/01/15 06:37:48;;;;;;;17.43;9.43;;;-4.30;99.90;;;;;;4986660;28;20692;-56
2022/01/15 06:40:15;;;;;;;20.37;8.30;;;-4.40;99.90;;;;;;4974949;28;20506;-52
2022/01/15 06:42:42;;;;;;;15.10;7.97;;;-4.40;99.90;;;;;;4985858;28;20825;-52
2022/01/15 06:45:08;;;;;;;19.93;9.07;;;-4.40;99.90;;;;;;4996501;28;20422;-59
2022/01/15 06:47:34;;;;;;;22.87;9.63;;;-4.40;99.90;;;;;;5012373;28;20422;-57
2022/01/15 06:50:04;;;;;;;16.73;7.63;;;-4.40;99.90;;;;;;4993758;28;20981;-57
2022/01/15 06:52:34;;;;;;;14.73;9.07;;;-4.40;99.90;;;;;;4977034;28;20655;-54
2022/01/15 06:55:01;;;;;;;16.80;8.90;;;-4.40;99.90;;;;;;4979789;28;20447;-54
2022/01/15 06:57:27;;;;;;;17.30;9.40;;;-4.40;99.90;;;;;;4988632;28;20952;-56
2022/01/15 06:59:53;;;;;;;18.27;9.63;;;-4.40;99.90;;;;;;4981136;28;20447;-52
2022/01/15 07:02:18;;;;;;;15.10;9.83;;;-4.40;99.90;;;;;;4986631;28;20516;-54
2022/01/15 07:04:44;;;;;;;18.17;10.60;;;-4.40;99.90;;;;;;4989183;28;20450;-55
2022/01/15 07:07:09;;;;;;;17.20;9.87;;;-4.40;99.90;;;;;;4987040;28;20271;-54
2022/01/15 07:09:35;;;;;;;22.80;10.87;;;-4.40;99.90;;;;;;4986526;28;20300;-55
2022/01/15 07:12:02;;;;;;;16.00;9.33;;;-4.40;99.90;;;;;;4982048;28;20294;-55
2022/01/15 07:14:27;;;;;;;22.20;10.37;;;-4.40;99.90;;;;;;4988589;28;20185;-55
2022/01/15 07:16:53;;;;;;;19.10;10.00;;;-4.50;99.90;;;;;;4985772;28;20433;-55
2022/01/15 07:19:18;;;;;;;26.73;10.33;;;-4.50;99.90;;;;;;4979909;28;20643;-52
2022/01/15 07:21:44;;;;;;;13.00;8.93;;;-4.50;99.90;;;;;;4988521;28;20215;-54
2022/01/15 07:24:11;;;;;;;16.10;8.67;;;-4.50;99.90;;;;;;4988595;28;20185;-55
2022/01/15 07:26:37;;;;;;;22.53;9.10;;;-4.50;99.90;;;;;;4984168;28;20189;-56
2022/01/15 07:29:05;;;;;;;20.00;9.80;;;-4.50;99.90;;;;;;4973027;28;20457;-55
2022/01/15 07:31:30;;;;;;;18.97;10.27;;;-4.50;99.90;;;;;;4981871;28;20201;-53
2022/01/15 07:33:56;;;;;;;19.07;9.80;;;-4.50;99.90;;;;;;4983628;28;20431;-53
2022/01/15 07:36:22;;;;;;;19.80;9.67;;;-4.50;99.90;;;;;;4983107;28;20541;-55
2022/01/15 07:38:48;;;;;;;14.33;9.47;;;-4.50;99.90;;;;;;4988008;28;20479;-53
2022/01/15 07:41:14;;;;;;;16.07;9.90;;;-4.50;99.90;;;;;;4988757;28;20465;-55
2022/01/15 07:43:40;;;;;;;17.30;9.23;;;-4.50;99.90;;;;;;4976965;28;20175;-56
2022/01/15 07:46:06;;;;;;;13.57;9.53;;;-4.40;99.90;;;;;;4987150;28;20437;-56
2022/01/15 07:48:31;;;;;;;14.10;9.17;;;-4.40;99.90;;;;;;4988911;28;20190;-55
2022/01/15 07:50:57;;;;;;;16.47;9.63;;;-4.40;99.90;;;;;;4980921;28;20453;-57
2022/01/15 07:53:23;;;;;;;16.20;9.00;;;-4.40;99.90;;;;;;4973903;28;20176;-53
2022/01/15 07:55:48;;;;;;;15.30;8.20;;;-4.30;99.90;;;;;;4987994;28;20217;-54
2022/01/15 07:58:14;;;;;;;18.60;8.47;;;-4.30;99.90;;;;;;4989024;28;20573;-54
2022/01/15 08:00:41;;;;;;;14.00;8.30;;;-4.20;99.90;;;;;;4987744;28;20234;-57
2022/01/15 08:03:07;;;;;;;15.53;8.53;;;-4.20;99.90;;;;;;4988186;28;20181;-51
2022/01/15 08:05:33;;;;;;;13.23;7.90;;;-4.10;99.90;;;;;;4987095;28;20914;-55
2022/01/15 08:07:58;;;;;;;11.30;7.30;;;-4.10;99.90;;;;;;4985196;28;20182;-53
2022/01/15 08:10:24;;;;;;;16.13;8.53;;;-4.10;99.90;;;;;;4998804;28;20824;-56
2022/01/15 08:12:50;;;;;;;20.90;10.57;;;-4.00;99.90;;;;;;5000045;28;20193;-56
2022/01/15 08:15:17;;;;;;;22.00;11.37;;;-4.00;99.90;;;;;;4993497;28;20189;-54
2022/01/15 08:17:43;;;;;;;27.50;10.90;;;-3.90;99.90;;;;;;4984487;28;20451;-55
2022/01/15 08:20:09;;;;;;;20.70;10.27;;;-3.90;99.90;;;;;;4991051;28;20426;-60
2022/01/15 08:22:35;;;;;;;17.07;9.97;;;-3.90;99.90;;;;;;5008805;28;20206;-58
2022/01/15 08:25:00;;;;;;;18.73;9.50;;;-3.90;99.90;;;;;;5010570;28;20408;-59
2022/01/15 08:27:26;;;;;;;15.93;10.03;;;-3.90;99.90;;;;;;5007179;28;20624;-53
2022/01/15 08:29:52;;;;;;;17.77;8.83;;;-3.80;99.90;;;;;;4984364;28;20386;-52
2022/01/15 08:32:17;;;;;;;15.60;10.00;;;-3.80;99.90;;;;;;4988521;28;20221;-55
2022/01/15 08:34:44;;;;;;;12.37;8.20;;;-3.70;99.90;;;;;;4993746;28;20638;-60
2022/01/15 08:37:10;;;;;;;15.77;9.47;;;-3.60;99.90;;;;;;4994733;28;20228;-56
2022/01/15 08:39:36;;;;;;;16.33;8.90;;;-3.60;99.90;;;;;;4989922;28;21062;-56
2022/01/15 08:42:05;;;;;;;13.43;8.87;;;-3.50;99.90;;;;;;4989816;28;20616;-57
2022/01/15 08:44:31;;;;;;;17.73;8.60;;;-3.50;99.90;;;;;;4988077;28;20175;-52
2022/01/15 08:46:57;;;;;;;15.30;8.60;;;-3.40;99.90;;;;;;4991638;28;20904;-56
2022/01/15 08:49:22;;;;;;;19.80;10.37;;;-3.30;99.90;;;;;;4988201;28;20556;-54
2022/01/15 08:51:48;;;;;;;18.53;10.77;;;-3.30;99.90;;;;;;4984618;28;20226;-52
2022/01/15 08:54:14;;;;;;;23.40;11.00;;;-3.30;99.90;;;;;;4987841;28;20189;-54
2022/01/15 08:56:39;;;;;;;17.47;10.20;;;-3.20;99.90;;;;;;5000838;28;20185;-56
2022/01/15 08:59:05;;;;;;;18.87;10.10;;;-3.20;99.90;;;;;;5002311;28;20267;-51
2022/01/15 09:01:31;;;;;;;17.13;9.33;;;-3.10;99.90;;;;;;4993203;28;20464;-53
2022/01/15 09:03:57;;;;;;;13.40;8.40;;;-3.00;99.90;;;;;;4989524;28;20180;-54
2022/01/15 09:06:25;;;;;;;18.63;8.87;;;-3.00;99.90;;;;;;4990248;28;20430;-54
2022/01/15 09:08:51;;;;;;;11.87;7.23;;;-2.90;99.90;;;;;;4991167;28;20544;-52
2022/01/15 09:11:17;;;;;;;11.80;8.30;;;-2.80;99.90;;;;;;4986474;28;20528;-53
2022/01/15 09:13:43;;;;;;;15.90;8.47;;;-2.70;99.90;;;;;;4986569;28;20989;-54
2022/01/15 09:16:08;;;;;;;11.60;7.80;;;-2.70;99.90;;;;;;4985474;28;20467;-53
2022/01/15 09:18:34;;;;;;;12.07;8.00;;;-2.50;99.90;;;;;;4983739;28;20434;-57
2022/01/15 09:21:02;;;;;;;15.83;8.80;;;-2.50;99.90;;;;;;4986689;28;20199;-54
2022/01/15 09:23:27;;;;;;;17.97;9.57;;;-2.40;99.90;;;;;;4988174;28;20431;-53
2022/01/15 09:25:53;;;;;;;18.47;10.80;;;-2.30;99.90;;;;;;4986162;28;20521;-55
2022/01/15 09:31:03;;;;;;;18.43;9.87;;;-2.10;99.90;;;;;;4991474;28;20257;-50
2022/01/15 09:33:29;;;;;;;17.27;8.90;;;-2.00;99.90;;;;;;4987157;28;20488;-55
2022/01/15 09:35:55;;;;;;;11.10;7.30;;;-2.00;99.90;;;;;;4985794;28;20435;-55
2022/01/15 09:38:21;;;;;;;13.80;7.37;;;-1.90;99.90;;;;;;4982127;28;20534;-55
2022/01/15 09:40:47;;;;;;;11.83;7.20;;;-1.80;99.90;;;;;;4988466;28;20217;-53
2022/01/15 09:43:15;;;;;;;14.20;7.60;;;-1.70;99.90;;;;;;4982173;28;20429;-55
2022/01/15 09:45:42;;;;;;;13.87;7.47;;;-1.60;99.90;;;;;;4979915;28;20262;-57
2022/01/15 09:48:08;;;;;;;13.33;7.83;;;-1.50;99.90;;;;;;4978626;28;21036;-55
2022/01/15 09:50:42;;;;;;;13.47;8.40;;;-1.40;99.90;;;;;;4971831;28;20463;-54
2022/01/15 09:53:08;;;;;;;14.47;8.93;;;-1.30;99.90;;;;;;4995719;28;20409;-55
2022/01/15 09:55:34;;;;;;;16.50;9.47;;;-1.20;99.90;;;;;;5007272;28;20464;-54
2022/01/15 09:58:00;;;;;;;18.40;9.20;;;-1.10;99.90;;;;;;4999735;28;20463;-57
2022/01/15 10:00:27;;;;;;;15.67;9.47;;;-0.90;99.90;;;;;;4988237;28;20492;-54
2022/01/15 10:02:54;;;;;;;15.27;9.30;;;-0.80;99.90;;;;;;4985135;28;20736;-55
2022/01/15 10:05:20;;;;;;;13.13;8.50;;;-0.70;99.90;;;;;;4987877;28;20461;-56
2022/01/15 10:07:57;;;;;;;14.67;8.50;;;-0.60;99.90;;;;;;4999408;28;20422;-57
2022/01/15 10:10:24;;;;;;;14.43;8.33;;;-0.50;99.90;;;;;;5004830;28;21339;-55
2022/01/15 10:12:50;;;;;;;23.53;9.07;;;-0.40;99.90;;;;;;5006139;28;20448;-55
2022/01/15 10:15:16;;;;;;;17.90;10.30;;;-0.30;99.90;;;;;;5006377;28;20438;-61
2022/01/15 10:17:43;;;;;;;16.97;10.10;;;-0.20;99.90;;;;;;5008401;28;20449;-56
2022/01/15 10:20:14;;;;;;;17.40;10.53;;;0.00;99.90;;;;;;5006869;28;20458;-59
2022/01/15 10:22:51;;;;;;;17.10;8.87;;;0.10;99.90;;;;;;5006233;28;20457;-56
2022/01/15 10:25:21;;;;;;;21.57;10.80;;;0.30;99.90;;;;;;5006046;28;20512;-57
2022/01/15 10:27:49;;;;;;;22.53;11.40;;;0.50;99.90;;;;;;5004860;28;20449;-55
2022/01/15 10:30:22;;;;;;;19.53;11.23;;;0.60;99.90;;;;;;5003987;28;20478;-56
2022/01/15 10:33:03;;;;;;;15.90;11.20;;;0.80;99.90;;;;;;5006677;28;20457;-56
2022/01/15 10:35:32;;;;;;;21.00;12.37;;;0.90;99.90;;;;;;5007766;28;20439;-58
2022/01/15 10:37:59;;;;;;;16.93;10.97;;;1.10;99.90;;;;;;5006415;28;20518;-57
2022/01/15 10:40:28;;;;;;;16.20;11.20;;;1.20;99.90;;;;;;5002978;28;20511;-55
2022/01/15 10:42:59;;;;;;;21.23;11.23;;;1.30;99.90;;;;;;5003212;28;20495;-57
2022/01/15 10:45:29;;;;;;;21.27;11.27;;;1.50;99.90;;;;;;5003970;28;20435;-56
2022/01/15 10:47:57;;;;;;;20.43;12.10;;;1.60;99.90;;;;;;5011883;28;20439;-57
2022/01/15 10:50:27;;;;;;;21.27;10.80;;;1.80;99.90;;;;;;4999966;28;21009;-54
2022/01/15 10:52:54;;;;;;;22.90;12.53;;;2.00;99.90;;;;;;4995838;28;20686;-53
2022/01/15 10:55:28;;;;;;;22.47;12.00;;;2.10;99.90;;;;;;4989128;28;20526;-56
2022/01/15 10:57:57;;;;;;;22.37;12.30;;;2.30;99.90;;;;;;4997781;23;20501;-57
2022/01/15 11:00:25;;;;;;;25.10;12.57;;;2.50;99.90;;;;;;4980778;28;20429;-57
2022/01/15 11:02:59;;;;;;;20.67;12.90;;;2.60;99.90;;;;;;4978882;28;20446;-58
2022/01/15 11:05:38;;;;;;;18.80;11.70;;;2.80;99.90;;;;;;4977172;28;20443;-58
2022/01/15 11:08:08;;;;;;;25.13;11.77;;;2.90;99.90;;;;;;4982366;28;20926;-58
2022/01/15 11:10:42;;;;;;;18.80;11.10;;;3.10;99.90;;;;;;4995895;28;20546;-58
2022/01/15 11:13:11;;;;;;;21.90;11.20;;;3.20;99.90;;;;;;4982835;28;20443;-58
2022/01/15 11:15:38;;;;;;;19.60;11.40;;;3.40;99.90;;;;;;4986499;28;20503;-58
2022/01/15 11:18:04;;;;;;;19.97;12.03;;;3.60;99.90;;;;;;4986882;28;21156;-57
2022/01/15 11:20:32;;;;;;;18.83;11.20;;;3.70;99.90;;;;;;4981930;28;20428;-56
2022/01/15 11:23:01;;;;;;;17.10;9.73;;;3.90;99.90;;;;;;4977755;28;20440;-59
2022/01/15 11:25:28;;;;;;;15.87;9.70;;;4.10;99.90;;;;;;4984301;28;20442;-58
2022/01/15 11:27:55;;;;;;;16.33;9.90;;;4.20;99.90;;;;;;4982290;28;20461;-58
2022/01/15 11:30:21;;;;;;;16.90;10.57;;;4.30;99.90;;;;;;4978049;28;21131;-59
2022/01/15 11:32:47;;;;;;;20.33;11.37;;;4.50;99.90;;;;;;4983039;28;20432;-59
2022/01/15 11:35:13;;;;;;;18.63;9.47;;;4.70;99.90;;;;;;4987559;28;20462;-59
2022/01/15 11:37:40;;;;;;;15.80;9.70;;;4.90;99.90;;;;;;4977662;28;20662;-58
2022/01/15 11:40:46;;;;;;;16.90;9.57;;;5.00;99.90;;;;;;4970234;28;20413;-59
2022/01/15 11:43:24;;;;;;;14.80;9.20;;;5.20;98.20;;;;;;4970438;28;20460;-58
2022/01/15 11:45:57;;;;;;;18.23;8.70;;;5.40;96.30;;;;;;4973278;28;20424;-59
2022/01/15 11:48:27;;;;;;;16.93;8.60;;;5.50;95.40;;;;;;4989845;28;20430;-60
2022/01/15 11:51:16;;;;;;;16.13;8.33;;;5.70;94.00;;;;;;4984494;28;20433;-61
2022/01/15 11:53:54;;;;;;;17.70;9.20;;;5.80;92.40;;;;;;4987205;28;20416;-60
2022/01/15 11:56:29;;;;;;;15.23;8.03;;;5.90;90.50;;;;;;4989293;28;20755;-60
2022/01/15 11:59:23;;;;;;;14.00;8.73;;;5.90;89.10;;;;;;4988239;28;20494;-60
2022/01/15 12:01:49;;;;;;;15.13;8.40;;;5.90;85.40;;;;;;4991793;28;20474;-59
2022/01/15 12:04:25;;;;;;;12.97;6.90;;;5.90;83.30;;;;;;4993181;28;20420;-60
2022/01/15 12:07:06;;;;;;;13.17;7.43;;;5.80;84.50;;;;;;4991830;28;20443;-60
2022/01/15 12:09:38;;;;;;;11.63;7.50;;;5.80;83.70;;;;;;4989459;28;20996;-58
2022/01/15 12:12:19;;;;;;;9.87;7.40;;;5.70;83.80;;;;;;4994109;28;21050;-59
2022/01/15 12:14:52;;;;;;;14.17;6.57;;;5.70;83.50;;;;;;4981878;28;20478;-60
2022/01/15 12:17:32;;;;;;;16.03;6.87;;;5.60;83.00;;;;;;4981491;28;20901;-58
2022/01/15 12:20:00;;;;;;;8.00;5.40;;;5.40;83.90;;;;;;4985307;28;20424;-60
2022/01/15 12:22:49;;;;;;;8.20;5.50;;;5.30;84.70;;;;;;4991634;28;20958;-59
2022/01/15 12:25:17;;;;;;;9.80;5.90;;;5.10;86.70;;;;;;4984422;28;20448;-59
2022/01/15 12:27:55;;;;;;;11.90;6.03;;;5.00;88.00;;;;;;4983334;28;20440;-60
2022/01/15 12:30:23;;;;;;;9.50;5.37;;;4.90;89.30;;;;;;4981555;28;21035;-60
2022/01/15 12:32:54;;;;;;;8.43;4.80;;;4.90;88.00;;;;;;4986969;28;20431;-59
2022/01/15 12:35:32;;;;;;;7.30;4.57;;;4.90;89.10;;;;;;4991176;28;20482;-60
2022/01/15 12:38:11;;;;;;;6.40;4.90;;;4.80;89.10;;;;;;4992776;28;21024;-60
2022/01/15 12:40:45;;;;;;;10.20;4.93;;;4.90;89.50;;;;;;4992751;28;20506;-58
2022/01/15 12:43:48;;;;;;;8.77;5.67;;;4.90;88.90;;;;;;4993357;28;20443;-60
2022/01/15 12:46:17;;;;;;;10.50;5.20;;;4.90;89.10;;;;;;4923813;29;21249;-59
2022/01/15 12:48:45;;;;;;;4.87;4.23;;;4.90;89.00;;;;;;4965717;28;20425;-59
2022/01/15 12:51:15;;;;;;;8.87;5.10;;;4.90;89.10;;;;;;4980447;28;20428;-59
2022/01/15 12:53:47;;;;;;;6.17;4.53;;;4.90;89.30;;;;;;4988987;28;20969;-59
2022/01/15 12:56:15;;;;;;;5.77;4.23;;;4.90;89.20;;;;;;4992862;28;21105;-59
2022/01/15 12:58:42;;;;;;;7.40;4.10;;;4.90;89.70;;;;;;4992235;28;20459;-59
2022/01/15 13:01:09;;;;;;;7.07;4.03;;;4.90;89.20;;;;;;4992643;28;20785;-59
2022/01/15 13:03:40;;;;;;;8.80;4.90;;;4.90;89.00;;;;;;4991559;28;20461;-60
2022/01/15 13:06:07;;;;;;;9.30;5.03;;;5.00;88.40;;;;;;4971523;28;20436;-59